createdAt,value
2022-07-27T00:01:15.730Z,99.80
2022-07-27T00:03:45.877Z,99.80
2022-07-27T00:06:14.525Z,99.80
2022-07-27T00:08:42.630Z,99.90
2022-07-27T00:11:11.664Z,99.90
2022-07-27T00:13:40.815Z,99.90
2022-07-27T00:16:09.185Z,99.90
2022-07-27T00:18:38.791Z,99.90
2022-07-27T00:21:06.927Z,99.90
2022-07-27T00:23:35.272Z,99.90
2022-07-27T00:26:03.366Z,99.90
2022-07-27T00:28:32.029Z,99.90
2022-07-27T00:31:00.262Z,99.90
2022-07-27T00:33:28.521Z,99.90
2022-07-27T00:35:58.966Z,99.90
2022-07-27T00:38:27.156Z,99.90
2022-07-27T00:40:55.394Z,99.90
2022-07-27T00:43:23.572Z,99.90
2022-07-27T00:45:51.743Z,99.90
2022-07-27T00:48:27.207Z,99.90
2022-07-27T00:51:00.184Z,99.90
2022-07-27T00:53:28.746Z,99.90
2022-07-27T00:55:56.881Z,99.90
2022-07-27T00:58:25.367Z,99.90
2022-07-27T01:00:53.544Z,99.90
2022-07-27T01:03:23.212Z,99.90
2022-07-27T01:06:00.137Z,99.90
2022-07-27T01:08:30.623Z,99.90
2022-07-27T01:11:00.300Z,99.90
2022-07-27T01:13:30.708Z,99.90
2022-07-27T01:15:59.619Z,99.90
2022-07-27T01:18:29.925Z,99.90
2022-07-27T01:21:00.672Z,99.90
2022-07-27T01:23:32.508Z,99.90
2022-07-27T01:26:01.298Z,99.90
2022-07-27T01:28:29.690Z,99.90
2022-07-27T01:30:58.102Z,99.90
2022-07-27T01:33:31.948Z,99.90
2022-07-27T01:36:00.119Z,99.90
2022-07-27T01:38:29.623Z,99.90
2022-07-27T01:40:57.867Z,99.90
2022-07-27T01:43:25.971Z,99.90
2022-07-27T01:45:54.055Z,99.90
2022-07-27T01:48:22.313Z,99.90
2022-07-27T01:50:51.079Z,99.90
2022-07-27T01:53:19.885Z,99.90
2022-07-27T01:55:50.375Z,99.90
2022-07-27T01:58:19.065Z,99.90
2022-07-27T02:00:47.387Z,99.90
2022-07-27T02:03:15.572Z,99.90
2022-07-27T02:05:43.943Z,99.90
2022-07-27T02:08:12.086Z,99.90
2022-07-27T02:11:00.864Z,99.90
2022-07-27T02:13:29.373Z,99.90
2022-07-27T02:15:57.885Z,99.90
2022-07-27T02:18:33.506Z,99.90
2022-07-27T02:21:05.951Z,99.90
2022-07-27T02:23:34.415Z,99.90
2022-07-27T02:26:02.848Z,99.90
2022-07-27T02:28:32.318Z,99.90
2022-07-27T02:31:00.601Z,99.90
2022-07-27T02:33:29.663Z,99.90
2022-07-27T02:35:57.871Z,99.90
2022-07-27T02:38:26.811Z,99.90
2022-07-27T02:40:54.925Z,99.90
2022-07-27T02:43:23.249Z,99.90
2022-07-27T02:45:53.062Z,99.90
2022-07-27T02:48:21.661Z,99.90
2022-07-27T02:50:49.815Z,99.90
2022-07-27T02:53:18.017Z,99.90
2022-07-27T02:55:46.140Z,99.90
2022-07-27T02:58:14.326Z,99.90
2022-07-27T03:00:42.489Z,99.90
2022-07-27T03:03:12.569Z,99.90
2022-07-27T03:05:40.942Z,99.90
2022-07-27T03:08:09.568Z,99.90
2022-07-27T03:10:37.800Z,99.90
2022-07-27T03:13:05.976Z,99.90
2022-07-27T03:15:35.013Z,99.90
2022-07-27T03:18:03.445Z,99.90
2022-07-27T03:20:33.438Z,99.90
2022-07-27T03:23:01.994Z,99.90
2022-07-27T03:25:30.165Z,99.90
2022-07-27T03:28:03.549Z,99.90
2022-07-27T03:30:32.511Z,99.90
2022-07-27T03:33:00.838Z,99.90
2022-07-27T03:35:29.269Z,99.90
2022-07-27T03:37:58.723Z,99.90
2022-07-27T03:40:29.316Z,99.90
2022-07-27T03:42:57.524Z,99.90
2022-07-27T03:45:25.873Z,99.90
2022-07-27T03:47:54.102Z,99.90
2022-07-27T03:50:22.805Z,99.90
2022-07-27T03:52:51.897Z,99.90
2022-07-27T03:55:21.902Z,99.90
2022-07-27T03:57:50.850Z,99.90
2022-07-27T04:00:19.288Z,99.90
2022-07-27T04:02:47.944Z,99.90
2022-07-27T04:05:16.366Z,99.90
2022-07-27T04:07:44.566Z,99.90
2022-07-27T04:10:12.812Z,99.90
2022-07-27T04:12:43.733Z,99.90
2022-07-27T04:15:14.885Z,99.90
2022-07-27T04:17:55.126Z,99.90
2022-07-27T04:20:25.593Z,99.90
2022-07-27T04:22:53.677Z,99.90
2022-07-27T04:25:22.019Z,99.90
2022-07-27T04:27:54.450Z,99.90
2022-07-27T04:30:23.713Z,99.90
2022-07-27T04:32:52.147Z,99.90
2022-07-27T04:35:25.939Z,99.90
2022-07-27T04:37:58.216Z,99.90
2022-07-27T04:40:31.845Z,99.90
2022-07-27T04:43:02.593Z,99.90
2022-07-27T04:45:31.513Z,99.90
2022-07-27T04:48:00.158Z,99.90
2022-07-27T04:50:28.231Z,99.90
2022-07-27T04:52:59.536Z,99.90
2022-07-27T04:55:27.715Z,99.90
2022-07-27T04:57:55.862Z,99.90
2022-07-27T05:00:25.463Z,99.90
2022-07-27T05:02:53.565Z,99.90
2022-07-27T05:05:22.129Z,99.90
2022-07-27T05:07:50.309Z,99.90
2022-07-27T05:10:20.594Z,99.90
2022-07-27T05:12:50.017Z,99.90
2022-07-27T05:15:18.593Z,99.90
2022-07-27T05:17:48.640Z,99.90
2022-07-27T05:20:17.153Z,99.90
2022-07-27T05:22:45.555Z,99.90
2022-07-27T05:25:14.183Z,99.90
2022-07-27T05:27:53.851Z,99.90
2022-07-27T05:30:24.536Z,99.90
2022-07-27T05:32:54.817Z,99.90
2022-07-27T05:35:23.781Z,99.90
2022-07-27T05:37:52.044Z,99.90
2022-07-27T05:40:20.196Z,99.90
2022-07-27T05:42:48.740Z,99.90
2022-07-27T05:45:17.202Z,99.90
2022-07-27T05:47:45.405Z,99.90
2022-07-27T05:50:15.607Z,99.90
2022-07-27T05:52:44.355Z,99.90
2022-07-27T05:55:12.719Z,99.90
2022-07-27T05:57:42.309Z,99.90
2022-07-27T06:00:12.299Z,99.90
2022-07-27T06:02:40.861Z,99.90
2022-07-27T06:05:15.268Z,99.90
2022-07-27T06:08:00.643Z,99.90
2022-07-27T06:10:30.293Z,99.90
2022-07-27T06:12:58.763Z,99.90
2022-07-27T06:15:27.225Z,99.90
2022-07-27T06:17:56.183Z,99.90
2022-07-27T06:20:25.973Z,99.90
2022-07-27T06:22:57.780Z,99.90
2022-07-27T06:25:34.150Z,99.90
2022-07-27T06:28:03.909Z,99.90
2022-07-27T06:30:32.210Z,99.90
2022-07-27T06:33:00.413Z,99.90
2022-07-27T06:35:28.714Z,99.90
2022-07-27T06:37:58.195Z,99.90
2022-07-27T06:40:29.739Z,99.90
2022-07-27T06:42:58.499Z,99.90
2022-07-27T06:45:26.646Z,99.90
2022-07-27T06:47:54.829Z,99.90
2022-07-27T06:50:24.024Z,99.90
2022-07-27T06:52:52.374Z,99.90
2022-07-27T06:55:21.887Z,99.90
2022-07-27T06:57:50.090Z,99.90
2022-07-27T07:00:18.549Z,99.90
2022-07-27T07:02:54.583Z,99.90
2022-07-27T07:05:23.449Z,99.40
2022-07-27T07:07:52.115Z,99.10
2022-07-27T07:10:23.921Z,98.70
2022-07-27T07:12:55.822Z,98.20
2022-07-27T07:15:25.242Z,98.00
2022-07-27T07:17:54.249Z,97.90
2022-07-27T07:20:23.035Z,97.80
2022-07-27T07:22:51.448Z,97.70
2022-07-27T07:25:21.179Z,97.70
2022-07-27T07:27:50.521Z,97.70
2022-07-27T07:30:18.839Z,97.60
2022-07-27T07:32:47.445Z,97.40
2022-07-27T07:35:15.843Z,97.40
2022-07-27T07:37:44.137Z,97.40
2022-07-27T07:40:40.648Z,97.40
2022-07-27T07:43:03.541Z,97.40
2022-07-27T07:45:35.377Z,97.40
2022-07-27T07:48:03.575Z,97.40
2022-07-27T07:50:32.035Z,97.20
2022-07-27T07:53:00.209Z,97.10
2022-07-27T07:55:29.647Z,97.10
2022-07-27T07:57:59.925Z,96.90
2022-07-27T08:00:30.758Z,96.70
2022-07-27T08:02:59.282Z,96.60
2022-07-27T08:05:28.414Z,96.50
2022-07-27T08:07:56.738Z,96.50
2022-07-27T08:10:25.409Z,96.40
2022-07-27T08:12:55.861Z,96.30
2022-07-27T08:15:34.858Z,96.30
2022-07-27T08:18:06.584Z,96.20
2022-07-27T08:20:35.465Z,96.10
2022-07-27T08:23:05.143Z,96.00
2022-07-27T08:25:33.515Z,95.80
2022-07-27T08:28:02.899Z,95.60
2022-07-27T08:30:32.372Z,95.30
2022-07-27T08:33:03.197Z,95.20
2022-07-27T08:35:34.611Z,95.10
2022-07-27T08:38:05.268Z,95.10
2022-07-27T08:40:40.579Z,95.00
2022-07-27T08:43:10.484Z,94.80
2022-07-27T08:45:41.297Z,94.80
2022-07-27T08:48:14.547Z,94.70
2022-07-27T08:50:44.842Z,94.60
2022-07-27T08:53:14.262Z,94.50
2022-07-27T08:55:44.832Z,94.30
2022-07-27T08:58:14.583Z,94.20
2022-07-27T09:00:45.356Z,94.20
2022-07-27T09:03:18.970Z,94.20
2022-07-27T09:05:51.707Z,94.20
2022-07-27T09:08:24.030Z,94.20
2022-07-27T09:10:52.874Z,94.40
2022-07-27T09:13:24.003Z,94.20
2022-07-27T09:18:43.157Z,94.20
2022-07-27T09:21:19.746Z,94.20
2022-07-27T09:23:52.141Z,94.10
2022-07-27T09:26:37.283Z,94.10
2022-07-27T09:29:07.894Z,93.90
2022-07-27T09:31:43.643Z,93.80
2022-07-27T09:34:13.206Z,93.80
2022-07-27T09:36:54.642Z,93.90
2022-07-27T09:39:24.799Z,93.80
2022-07-27T09:41:55.379Z,93.80
2022-07-27T09:44:42.980Z,93.80
2022-07-27T09:47:26.755Z,93.70
2022-07-27T09:49:58.113Z,93.20
2022-07-27T09:52:31.516Z,93.00
2022-07-27T09:55:05.231Z,93.00
2022-07-27T09:57:52.545Z,92.90
2022-07-27T10:00:21.522Z,92.80
2022-07-27T10:02:51.161Z,92.60
2022-07-27T10:05:22.537Z,92.50
2022-07-27T10:07:53.873Z,92.60
2022-07-27T10:10:23.317Z,92.60
2022-07-27T10:12:55.277Z,92.80
2022-07-27T10:15:24.214Z,92.80
2022-07-27T10:18:02.072Z,92.60
2022-07-27T10:20:39.504Z,92.60
2022-07-27T10:23:09.042Z,92.40
2022-07-27T10:25:38.401Z,92.30
2022-07-27T10:28:12.891Z,92.20
2022-07-27T10:30:41.471Z,92.20
2022-07-27T10:33:17.985Z,92.10
2022-07-27T10:35:46.364Z,92.10
2022-07-27T10:38:18.478Z,92.00
2022-07-27T10:40:47.281Z,91.90
2022-07-27T10:43:21.380Z,91.80
2022-07-27T10:46:02.025Z,91.90
2022-07-27T10:48:41.490Z,92.00
2022-07-27T10:51:13.687Z,91.90
2022-07-27T10:56:46.882Z,92.10
2022-07-27T10:59:15.590Z,92.00
2022-07-27T11:01:57.995Z,92.30
2022-07-27T11:04:27.190Z,91.70
2022-07-27T11:07:24.188Z,91.70
2022-07-27T11:10:03.573Z,91.60
2022-07-27T11:12:32.329Z,91.40
2022-07-27T11:15:02.225Z,91.10
2022-07-27T11:20:23.892Z,91.00
2022-07-27T11:25:41.937Z,91.00
2022-07-27T11:28:10.039Z,91.00
2022-07-27T11:30:38.185Z,91.20
2022-07-27T11:33:07.220Z,90.90
2022-07-27T11:35:35.848Z,90.80
2022-07-27T11:38:07.785Z,90.70
2022-07-27T11:40:59.924Z,90.70
2022-07-27T11:43:39.975Z,90.60
2022-07-27T11:46:19.758Z,90.50
2022-07-27T11:49:09.341Z,90.30
2022-07-27T11:51:39.984Z,90.30
2022-07-27T11:54:10.591Z,90.70
2022-07-27T11:56:43.408Z,90.40
2022-07-27T11:59:17.219Z,90.50
2022-07-27T12:01:48.097Z,90.40
2022-07-27T12:04:21.876Z,90.50
2022-07-27T12:07:00.423Z,90.40
2022-07-27T12:09:36.723Z,90.40
2022-07-27T12:12:14.262Z,90.40
2022-07-27T12:14:45.747Z,90.40
2022-07-27T12:17:27.672Z,90.40
2022-07-27T12:19:58.593Z,90.30
2022-07-27T12:22:32.654Z,90.30
2022-07-27T12:25:02.208Z,90.30
2022-07-27T12:27:31.763Z,90.30
2022-07-27T12:30:07.867Z,90.70
2022-07-27T12:32:56.579Z,90.30
2022-07-27T12:35:31.585Z,90.20
2022-07-27T12:38:03.988Z,90.10
2022-07-27T12:40:33.913Z,90.10
2022-07-27T12:43:06.022Z,89.90
2022-07-27T12:45:36.476Z,89.60
2022-07-27T12:48:09.951Z,89.20
2022-07-27T12:50:39.492Z,88.90
2022-07-27T12:53:08.767Z,88.70
2022-07-27T12:55:37.950Z,88.10
2022-07-27T12:58:10.252Z,87.50
2022-07-27T13:00:39.103Z,87.60
2022-07-27T13:03:08.224Z,87.30
2022-07-27T13:05:37.740Z,86.70
2022-07-27T13:08:06.666Z,86.80
2022-07-27T13:10:36.715Z,86.30
2022-07-27T13:13:05.534Z,86.00
2022-07-27T13:15:35.481Z,86.10
2022-07-27T13:18:04.322Z,86.00
2022-07-27T13:20:32.777Z,85.80
2022-07-27T13:23:01.156Z,85.40
2022-07-27T13:25:29.688Z,85.60
2022-07-27T13:27:58.039Z,85.60
2022-07-27T13:30:26.920Z,85.70
2022-07-27T13:32:56.830Z,85.30
2022-07-27T13:35:25.321Z,84.80
2022-07-27T13:37:54.328Z,84.60
2022-07-27T13:40:22.928Z,84.20
2022-07-27T13:42:51.374Z,84.10
2022-07-27T13:45:19.743Z,84.20
2022-07-27T13:47:48.429Z,84.60
2022-07-27T13:50:19.988Z,84.90
2022-07-27T13:52:49.388Z,85.20
2022-07-27T13:55:18.795Z,85.30
2022-07-27T13:57:47.803Z,85.40
2022-07-27T14:00:17.563Z,85.60
2022-07-27T14:02:46.323Z,86.60
2022-07-27T14:05:15.781Z,87.60
2022-07-27T14:07:45.861Z,88.70
2022-07-27T14:10:31.550Z,89.70
2022-07-27T14:13:08.708Z,90.00
2022-07-27T14:15:50.715Z,90.10
2022-07-27T14:18:27.839Z,90.10
2022-07-27T14:20:56.877Z,90.30
2022-07-27T14:23:27.934Z,90.30
2022-07-27T14:25:56.985Z,90.30
2022-07-27T14:28:26.011Z,90.20
2022-07-27T14:30:55.082Z,90.40
2022-07-27T14:33:23.608Z,90.20
2022-07-27T14:35:52.232Z,90.30
2022-07-27T14:38:29.574Z,90.40
2022-07-27T14:41:01.677Z,90.40
2022-07-27T14:43:30.265Z,90.30
2022-07-27T14:45:59.003Z,90.10
2022-07-27T14:48:48.945Z,90.10
2022-07-27T14:51:16.486Z,90.20
2022-07-27T14:53:44.958Z,90.30
2022-07-27T14:56:14.820Z,90.20
2022-07-27T14:58:43.298Z,90.00
2022-07-27T15:01:11.687Z,90.00
2022-07-27T15:03:39.936Z,89.90
2022-07-27T15:06:08.043Z,89.70
2022-07-27T15:08:36.271Z,89.80
2022-07-27T15:11:04.848Z,89.50
2022-07-27T15:13:34.461Z,89.40
2022-07-27T15:16:03.483Z,89.30
2022-07-27T15:18:38.044Z,89.20
2022-07-27T15:21:12.779Z,89.20
2022-07-27T15:23:43.540Z,89.20
2022-07-27T15:26:12.958Z,89.50
2022-07-27T15:28:43.731Z,89.90
2022-07-27T15:31:13.419Z,90.10
2022-07-27T15:33:42.141Z,90.10
2022-07-27T15:36:31.482Z,90.10
2022-07-27T15:39:00.107Z,90.20
2022-07-27T15:41:28.449Z,90.20
2022-07-27T15:43:59.635Z,90.20
2022-07-27T15:46:28.266Z,90.00
2022-07-27T15:48:57.019Z,90.00
2022-07-27T15:51:26.167Z,89.80
2022-07-27T15:53:54.591Z,89.70
2022-07-27T15:56:22.876Z,89.30
2022-07-27T15:58:51.476Z,89.00
2022-07-27T16:01:21.446Z,88.80
2022-07-27T16:03:50.144Z,88.80
2022-07-27T16:06:20.093Z,88.90
2022-07-27T16:08:48.646Z,88.90
2022-07-27T16:11:16.927Z,88.70
2022-07-27T16:13:45.101Z,88.50
2022-07-27T16:16:31.006Z,88.30
2022-07-27T16:19:12.278Z,88.10
2022-07-27T16:21:54.831Z,87.60
2022-07-27T16:24:24.806Z,87.40
2022-07-27T16:26:53.150Z,87.20
2022-07-27T16:29:21.312Z,87.20
2022-07-27T16:31:49.647Z,87.00
2022-07-27T16:34:19.278Z,86.70
2022-07-27T16:36:49.021Z,86.70
2022-07-27T16:39:17.321Z,86.60
2022-07-27T16:41:47.195Z,86.70
2022-07-27T16:44:15.546Z,87.60
2022-07-27T16:46:43.725Z,87.10
2022-07-27T16:49:12.578Z,87.20
2022-07-27T16:51:42.433Z,87.40
2022-07-27T16:54:10.602Z,87.50
2022-07-27T16:56:38.799Z,87.70
2022-07-27T16:59:07.044Z,88.40
2022-07-27T17:01:35.234Z,88.80
2022-07-27T17:04:03.470Z,88.80
2022-07-27T17:06:32.365Z,89.20
2022-07-27T17:09:01.976Z,89.80
2022-07-27T17:11:30.142Z,90.00
2022-07-27T17:13:59.499Z,90.10
2022-07-27T17:16:28.749Z,90.10
2022-07-27T17:18:57.225Z,90.20
2022-07-27T17:21:25.698Z,90.20
2022-07-27T17:23:55.772Z,90.10
2022-07-27T17:26:25.400Z,90.10
2022-07-27T17:28:54.178Z,90.10
2022-07-27T17:31:22.812Z,89.70
2022-07-27T17:33:51.292Z,89.50
2022-07-27T17:36:19.678Z,88.40
2022-07-27T17:38:49.346Z,87.30
2022-07-27T17:41:24.107Z,86.50
2022-07-27T17:43:54.748Z,86.00
2022-07-27T17:46:24.837Z,85.50
2022-07-27T17:48:53.875Z,84.60
2022-07-27T17:51:23.148Z,84.20
2022-07-27T17:53:51.580Z,84.70
2022-07-27T17:56:19.741Z,83.80
2022-07-27T17:58:48.183Z,83.60
2022-07-27T18:01:17.822Z,83.60
2022-07-27T18:04:06.103Z,83.40
2022-07-27T18:06:34.428Z,83.40
2022-07-27T18:09:02.679Z,83.30
2022-07-27T18:11:30.979Z,83.40
2022-07-27T18:13:59.169Z,83.40
2022-07-27T18:16:28.845Z,83.40
2022-07-27T18:18:57.008Z,83.50
2022-07-27T18:21:25.235Z,83.70
2022-07-27T18:23:53.426Z,83.80
2022-07-27T18:26:22.216Z,84.10
2022-07-27T18:28:52.650Z,84.20
2022-07-27T18:31:21.008Z,84.30
2022-07-27T18:33:52.653Z,84.40
2022-07-27T18:36:21.223Z,84.70
2022-07-27T18:38:50.025Z,85.00
2022-07-27T18:41:19.471Z,85.30
2022-07-27T18:43:52.013Z,85.60
2022-07-27T18:46:21.397Z,85.80
2022-07-27T18:48:51.470Z,86.10
2022-07-27T18:51:19.657Z,86.40
2022-07-27T18:53:48.891Z,86.50
2022-07-27T18:56:17.011Z,86.70
2022-07-27T18:58:45.200Z,86.90
2022-07-27T19:01:13.415Z,87.10
2022-07-27T19:03:43.611Z,87.30
2022-07-27T19:06:15.102Z,87.40
2022-07-27T19:08:46.538Z,87.60
2022-07-27T19:11:15.111Z,87.60
2022-07-27T19:13:47.934Z,87.70
2022-07-27T19:16:16.622Z,87.80
2022-07-27T19:18:44.884Z,87.90
2022-07-27T19:21:15.794Z,88.00
2022-07-27T19:23:46.307Z,88.10
2022-07-27T19:26:14.859Z,88.20
2022-07-27T19:28:44.308Z,88.30
2022-07-27T19:31:22.331Z,89.00
2022-07-27T19:33:52.237Z,88.40
2022-07-27T19:36:23.155Z,88.50
2022-07-27T19:38:51.844Z,88.70
2022-07-27T19:41:20.084Z,88.70
2022-07-27T19:43:48.206Z,88.90
2022-07-27T19:46:25.562Z,88.90
2022-07-27T19:48:54.922Z,89.10
2022-07-27T19:51:25.069Z,89.70
2022-07-27T19:53:53.217Z,89.20
2022-07-27T19:56:21.309Z,89.30
2022-07-27T19:58:49.408Z,89.40
2022-07-27T20:01:17.910Z,89.50
2022-07-27T20:03:48.846Z,89.50
2022-07-27T20:06:24.304Z,89.50
2022-07-27T20:08:55.751Z,89.80
2022-07-27T20:11:23.944Z,89.90
2022-07-27T20:13:52.157Z,90.00
2022-07-27T20:16:20.326Z,90.00
2022-07-27T20:18:48.516Z,90.10
2022-07-27T20:21:20.763Z,90.20
2022-07-27T20:23:53.198Z,90.20
2022-07-27T20:26:21.764Z,90.30
2022-07-27T20:28:50.240Z,90.30
2022-07-27T20:31:18.744Z,90.30
2022-07-27T20:33:46.894Z,90.40
2022-07-27T20:36:14.990Z,90.40
2022-07-27T20:38:43.478Z,90.40
2022-07-27T20:41:12.996Z,90.50
2022-07-27T20:43:41.169Z,90.50
2022-07-27T20:46:09.347Z,90.60
2022-07-27T20:48:38.804Z,90.60
2022-07-27T20:51:06.884Z,90.70
2022-07-27T20:53:35.045Z,90.70
2022-07-27T20:56:03.134Z,90.80
2022-07-27T20:58:33.037Z,90.80
2022-07-27T21:01:01.261Z,91.20
2022-07-27T21:03:29.519Z,90.90
2022-07-27T21:05:57.653Z,91.00
2022-07-27T21:08:25.944Z,91.00
2022-07-27T21:10:56.763Z,91.10
2022-07-27T21:13:25.190Z,91.10
2022-07-27T21:15:54.889Z,91.20
2022-07-27T21:18:22.977Z,91.40
2022-07-27T21:20:51.142Z,91.40
2022-07-27T21:23:36.780Z,91.50
2022-07-27T21:26:04.911Z,91.60
2022-07-27T21:28:33.707Z,91.70
2022-07-27T21:31:03.488Z,91.80
2022-07-27T21:33:36.080Z,91.80
2022-07-27T21:36:07.949Z,91.80
2022-07-27T21:38:36.057Z,91.80
2022-07-27T21:41:04.202Z,91.90
2022-07-27T21:43:33.569Z,91.90
2022-07-27T21:46:03.155Z,92.00
2022-07-27T21:48:31.620Z,92.00
2022-07-27T21:50:59.880Z,92.00
2022-07-27T21:53:28.034Z,92.10
2022-07-27T21:55:56.167Z,92.10
2022-07-27T21:58:24.699Z,92.10
2022-07-27T22:00:52.896Z,92.10
2022-07-27T22:03:22.413Z,92.10
2022-07-27T22:05:50.582Z,92.20
2022-07-27T22:08:18.706Z,92.20
2022-07-27T22:10:46.768Z,92.30
2022-07-27T22:13:14.881Z,92.30
2022-07-27T22:15:43.001Z,92.40
2022-07-27T22:18:11.075Z,92.50
2022-07-27T22:20:40.614Z,92.50
2022-07-27T22:23:09.143Z,92.80
2022-07-27T22:25:37.710Z,92.70
2022-07-27T22:28:06.692Z,92.80
2022-07-27T22:30:35.127Z,92.90
2022-07-27T22:33:03.685Z,92.90
2022-07-27T22:35:31.810Z,93.00
2022-07-27T22:38:01.310Z,93.10
2022-07-27T22:40:29.555Z,93.20
2022-07-27T22:42:57.798Z,93.20
2022-07-27T22:45:25.925Z,93.20
2022-07-27T22:47:54.146Z,93.30
2022-07-27T22:50:23.134Z,93.40
2022-07-27T22:52:53.796Z,93.40
2022-07-27T22:55:23.297Z,93.40
2022-07-27T22:57:51.389Z,93.50
2022-07-27T23:00:19.746Z,93.50
2022-07-27T23:02:48.054Z,93.50
2022-07-27T23:05:16.550Z,93.50
2022-07-27T23:07:44.902Z,93.50
2022-07-27T23:10:30.498Z,93.50
2022-07-27T23:13:00.381Z,93.90
2022-07-27T23:15:28.852Z,93.60
2022-07-27T23:17:57.333Z,93.60
2022-07-27T23:20:25.628Z,93.60
2022-07-27T23:22:55.118Z,93.70
2022-07-27T23:25:24.792Z,93.70
2022-07-27T23:28:06.254Z,93.80
2022-07-27T23:30:34.844Z,93.80
2022-07-27T23:33:03.086Z,93.80
2022-07-27T23:35:31.506Z,93.90
2022-07-27T23:37:59.859Z,93.90
2022-07-27T23:40:28.349Z,93.90
2022-07-27T23:42:56.750Z,94.00
2022-07-27T23:45:26.419Z,94.30
2022-07-27T23:47:54.625Z,94.20
2022-07-27T23:50:23.482Z,94.20
2022-07-27T23:52:51.590Z,94.30
2022-07-27T23:55:19.706Z,94.30
2022-07-27T23:57:47.841Z,94.70
